Hauptseite
METAR-TAF:

METAR-TAF

Flughäfen :

Flughafen Curaçao

Curaçao, Niederländische Antillen

Breite: 12-12N, Länge: 068-58W, Höhe: 9 m

Beobachtung

Neuester Wetterbericht von vor 29 Minuten, um 08:00 UTC
Wind 8 kt aus Ost/Südost
Temperatur 27°C
Luftfeuchtigkeit 84%
Luftdruck 1010 hPa
Sichtweite 10 km oder mehr

METAR: TNCC 160800Z AUTO 11008KT 9999 NCD 27/24 Q1010

Zeit: 04:29 (08:29 UTC)

Prognose

Neuester Wetterbericht von vor 4 Stunden und 29 Minuten, um 04:00 UTC
Gültige Prognose vom 16 um 06 UTC bis 17 um 06 UTC
Wind 8 kt aus Ost/Südost
Sichtweite 10 km oder mehr
Aufgelockert bewölkt in der Höhe von 1800 ft
Wahrscheinlichkeit 30% :
Zeitweise
vom 16 um 08 UTC bis 16 um 14 UTC
Sichtweite: 7000 m
Durchbrochene Bewölkung in der Höhe von 1500 ft
Regenschauer

TAF: TNCC 160400Z 1606/1706 11008KT 9999 SCT018 PROB30 TEMPO 1608/1614 7000 SHRA BKN015

Wetterbeobachtungen und Prognosen von mehr als 4000 Flughäfen (METAR und TAF Bericht).

Die verfügbaren Stationen werden durch gelbe und rote Markierungen auf der Karte dargestellt.

Führen Sie die Maus auf sie, um den Namen der Station zu sehen.

Darauf klicken, um die Beobachtung von Wetterbeobachtungen und Prognosen zu sehen.

Um die Karte zu ändern : klicken Sie auf den grünen Tasten mit einem schwarzen Kreuz Zum Vergrößern, auf den grünen Button mit einem Gedankenstrich zu verkleinern, oder auf die grünen Pfeile für benachbarte Karten.


METAR-TAF: